Gulf Park Estates, Mississippi
Current Conditions -  °F | °C
As of 2:58 PM on Saturday 25 Oct 2014 (Local Time) from KBIX Reporting Station
Clear Clear  
Wind Chill: 80°   Ceiling: Unl
Heat Index: 80°   Visibility: 10mi
Dew Point: 54°   Wind: 9mph
Humidity: 40%   Direction: 360°N
Pressure: 30.06"   Gusts: NA
Location:  30.418°N, 88.7558°W
Report Text: KBIX 251958Z AUTO 36008KT 10SM CLR 27/12 A3006 RMK AO2 SLP182 T02680122
Loading
Personal Weather Stations






























Interactive Weather Map
Tropical Storm Tracking
New forecast layout! Learn more

10-Day Weather Forecast

Advertisements
Track Severe Weather on mobile